sensor_id;sensor_type;location;lat;lon;timestamp;temperature;humidity
11055;DHT22;5580;50.106;8.702;2023-12-22T00:00:30;7.60;99.90
11055;DHT22;5580;50.106;8.702;2023-12-22T00:02:55;7.60;99.90
11055;DHT22;5580;50.106;8.702;2023-12-22T00:05:21;7.60;99.90
11055;DHT22;5580;50.106;8.702;2023-12-22T00:07:46;7.60;99.90
11055;DHT22;5580;50.106;8.702;2023-12-22T00:10:12;7.60;99.90
11055;DHT22;5580;50.106;8.702;2023-12-22T00:12:37;7.60;99.90
11055;DHT22;5580;50.106;8.702;2023-12-22T00:15:06;7.60;99.90
11055;DHT22;5580;50.106;8.702;2023-12-22T00:17:32;7.50;99.90
11055;DHT22;5580;50.106;8.702;2023-12-22T00:19:57;7.60;99.90
11055;DHT22;5580;50.106;8.702;2023-12-22T00:22:25;7.60;99.90
11055;DHT22;5580;50.106;8.702;2023-12-22T00:24:51;7.60;99.90
11055;DHT22;5580;50.106;8.702;2023-12-22T00:27:16;7.70;99.90
11055;DHT22;5580;50.106;8.702;2023-12-22T00:29:42;7.80;99.90
11055;DHT22;5580;50.106;8.702;2023-12-22T00:32:07;7.80;99.90
11055;DHT22;5580;50.106;8.702;2023-12-22T00:34:35;7.90;99.90
11055;DHT22;5580;50.106;8.702;2023-12-22T00:37:01;7.90;99.90
11055;DHT22;5580;50.106;8.702;2023-12-22T00:39:26;7.80;99.90
11055;DHT22;5580;50.106;8.702;2023-12-22T00:41:52;7.80;99.90
11055;DHT22;5580;50.106;8.702;2023-12-22T00:44:18;7.80;99.90
11055;DHT22;5580;50.106;8.702;2023-12-22T00:46:43;7.70;99.90
11055;DHT22;5580;50.106;8.702;2023-12-22T00:49:09;7.70;99.90
11055;DHT22;5580;50.106;8.702;2023-12-22T00:51:34;7.70;99.90
11055;DHT22;5580;50.106;8.702;2023-12-22T00:54:00;7.80;99.90
11055;DHT22;5580;50.106;8.702;2023-12-22T00:56:26;7.80;99.90
11055;DHT22;5580;50.106;8.702;2023-12-22T00:58:51;7.80;99.90
11055;DHT22;5580;50.106;8.702;2023-12-22T01:01:17;7.80;99.90
11055;DHT22;5580;50.106;8.702;2023-12-22T01:03:43;7.80;99.90
11055;DHT22;5580;50.106;8.702;2023-12-22T01:06:08;7.70;99.90
11055;DHT22;5580;50.106;8.702;2023-12-22T01:08:35;7.60;99.90
11055;DHT22;5580;50.106;8.702;2023-12-22T01:11:01;7.70;99.90
11055;DHT22;5580;50.106;8.702;2023-12-22T01:13:27;7.70;99.90
11055;DHT22;5580;50.106;8.702;2023-12-22T01:15:52;7.80;99.90
11055;DHT22;5580;50.106;8.702;2023-12-22T01:18:18;7.80;99.90
11055;DHT22;5580;50.106;8.702;2023-12-22T01:20:43;7.80;99.90
11055;DHT22;5580;50.106;8.702;2023-12-22T01:23:09;7.90;99.90
11055;DHT22;5580;50.106;8.702;2023-12-22T01:25:34;7.90;99.90
11055;DHT22;5580;50.106;8.702;2023-12-22T01:28:00;7.90;99.90
11055;DHT22;5580;50.106;8.702;2023-12-22T01:30:26;8.00;99.90
11055;DHT22;5580;50.106;8.702;2023-12-22T01:32:51;8.00;99.90
11055;DHT22;5580;50.106;8.702;2023-12-22T01:35:20;7.90;99.90
11055;DHT22;5580;50.106;8.702;2023-12-22T01:37:46;7.80;99.90
11055;DHT22;5580;50.106;8.702;2023-12-22T01:40:13;7.60;99.90
11055;DHT22;5580;50.106;8.702;2023-12-22T01:42:38;7.50;99.90
11055;DHT22;5580;50.106;8.702;2023-12-22T01:45:05;7.50;99.90
11055;DHT22;5580;50.106;8.702;2023-12-22T01:47:31;7.50;99.90
11055;DHT22;5580;50.106;8.702;2023-12-22T01:49:57;7.50;99.90
11055;DHT22;5580;50.106;8.702;2023-12-22T01:52:23;7.50;99.90
11055;DHT22;5580;50.106;8.702;2023-12-22T01:54:49;7.60;99.90
11055;DHT22;5580;50.106;8.702;2023-12-22T01:57:16;7.60;99.90
11055;DHT22;5580;50.106;8.702;2023-12-22T01:59:45;7.60;99.90
11055;DHT22;5580;50.106;8.702;2023-12-22T02:02:11;7.60;99.90
11055;DHT22;5580;50.106;8.702;2023-12-22T02:04:37;7.60;99.90
11055;DHT22;5580;50.106;8.702;2023-12-22T02:07:03;7.60;99.90
11055;DHT22;5580;50.106;8.702;2023-12-22T02:09:29;7.60;99.90
11055;DHT22;5580;50.106;8.702;2023-12-22T02:11:54;7.60;99.90
11055;DHT22;5580;50.106;8.702;2023-12-22T02:14:20;7.60;99.90
11055;DHT22;5580;50.106;8.702;2023-12-22T02:16:52;7.60;99.90
11055;DHT22;5580;50.106;8.702;2023-12-22T02:19:40;7.50;99.90
11055;DHT22;5580;50.106;8.702;2023-12-22T02:22:08;7.50;99.90
11055;DHT22;5580;50.106;8.702;2023-12-22T02:24:34;7.50;99.90
11055;DHT22;5580;50.106;8.702;2023-12-22T02:27:40;7.50;99.90
11055;DHT22;5580;50.106;8.702;2023-12-22T02:30:32;7.50;99.90
11055;DHT22;5580;50.106;8.702;2023-12-22T02:33:02;7.40;99.90
11055;DHT22;5580;50.106;8.702;2023-12-22T02:35:30;7.30;99.90
11055;DHT22;5580;50.106;8.702;2023-12-22T02:37:57;7.30;99.90
11055;DHT22;5580;50.106;8.702;2023-12-22T02:40:25;7.20;99.90
11055;DHT22;5580;50.106;8.702;2023-12-22T02:42:52;7.10;99.90
11055;DHT22;5580;50.106;8.702;2023-12-22T02:45:19;7.20;99.90
11055;DHT22;5580;50.106;8.702;2023-12-22T02:47:45;7.20;99.90
11055;DHT22;5580;50.106;8.702;2023-12-22T02:50:13;7.30;99.90
11055;DHT22;5580;50.106;8.702;2023-12-22T02:52:39;7.30;99.90
11055;DHT22;5580;50.106;8.702;2023-12-22T02:55:05;7.30;99.90
11055;DHT22;5580;50.106;8.702;2023-12-22T02:57:30;7.30;99.90
11055;DHT22;5580;50.106;8.702;2023-12-22T02:59:56;7.30;99.90
11055;DHT22;5580;50.106;8.702;2023-12-22T03:02:22;7.30;99.90
11055;DHT22;5580;50.106;8.702;2023-12-22T03:04:47;7.30;99.90
11055;DHT22;5580;50.106;8.702;2023-12-22T03:07:13;7.30;99.90
11055;DHT22;5580;50.106;8.702;2023-12-22T03:09:39;7.30;99.90
11055;DHT22;5580;50.106;8.702;2023-12-22T03:12:06;7.30;99.90
11055;DHT22;5580;50.106;8.702;2023-12-22T03:14:33;7.20;99.90
11055;DHT22;5580;50.106;8.702;2023-12-22T03:17:00;7.30;99.90
11055;DHT22;5580;50.106;8.702;2023-12-22T03:19:25;7.30;99.90
11055;DHT22;5580;50.106;8.702;2023-12-22T03:21:51;7.30;99.90
11055;DHT22;5580;50.106;8.702;2023-12-22T03:24:17;7.40;99.90
11055;DHT22;5580;50.106;8.702;2023-12-22T03:26:45;7.40;99.90
11055;DHT22;5580;50.106;8.702;2023-12-22T03:29:10;7.40;99.90
11055;DHT22;5580;50.106;8.702;2023-12-22T03:31:36;7.40;99.90
11055;DHT22;5580;50.106;8.702;2023-12-22T03:34:02;7.40;99.90
11055;DHT22;5580;50.106;8.702;2023-12-22T03:36:28;7.30;99.90
11055;DHT22;5580;50.106;8.702;2023-12-22T03:38:53;7.30;99.90
11055;DHT22;5580;50.106;8.702;2023-12-22T03:41:19;7.30;99.90
11055;DHT22;5580;50.106;8.702;2023-12-22T03:43:44;7.20;99.90
11055;DHT22;5580;50.106;8.702;2023-12-22T03:46:10;7.20;99.90
11055;DHT22;5580;50.106;8.702;2023-12-22T03:48:35;7.20;99.90
11055;DHT22;5580;50.106;8.702;2023-12-22T03:51:01;7.20;99.90
11055;DHT22;5580;50.106;8.702;2023-12-22T03:53:27;7.30;99.90
11055;DHT22;5580;50.106;8.702;2023-12-22T03:55:52;7.30;99.90
11055;DHT22;5580;50.106;8.702;2023-12-22T03:58:18;7.30;99.90
11055;DHT22;5580;50.106;8.702;2023-12-22T04:00:43;7.30;99.90
11055;DHT22;5580;50.106;8.702;2023-12-22T04:03:09;7.30;99.90
11055;DHT22;5580;50.106;8.702;2023-12-22T04:05:34;7.30;99.90
11055;DHT22;5580;50.106;8.702;2023-12-22T04:08:00;7.20;99.90
11055;DHT22;5580;50.106;8.702;2023-12-22T04:10:25;7.20;99.90
11055;DHT22;5580;50.106;8.702;2023-12-22T04:12:51;7.20;99.90
11055;DHT22;5580;50.106;8.702;2023-12-22T04:15:16;7.20;99.90
11055;DHT22;5580;50.106;8.702;2023-12-22T04:17:42;7.20;99.90
11055;DHT22;5580;50.106;8.702;2023-12-22T04:20:08;7.30;99.90
11055;DHT22;5580;50.106;8.702;2023-12-22T04:22:33;7.30;99.90
11055;DHT22;5580;50.106;8.702;2023-12-22T04:25:00;7.30;99.90
11055;DHT22;5580;50.106;8.702;2023-12-22T04:27:25;7.40;99.90
11055;DHT22;5580;50.106;8.702;2023-12-22T04:29:51;7.40;99.90
11055;DHT22;5580;50.106;8.702;2023-12-22T04:32:16;7.40;99.90
11055;DHT22;5580;50.106;8.702;2023-12-22T04:34:42;7.40;99.90
11055;DHT22;5580;50.106;8.702;2023-12-22T04:37:07;7.40;99.90
11055;DHT22;5580;50.106;8.702;2023-12-22T04:39:33;7.30;99.90
11055;DHT22;5580;50.106;8.702;2023-12-22T04:41:58;7.30;99.90
11055;DHT22;5580;50.106;8.702;2023-12-22T04:44:24;7.40;99.90
11055;DHT22;5580;50.106;8.702;2023-12-22T04:46:50;7.40;99.90
11055;DHT22;5580;50.106;8.702;2023-12-22T04:49:15;7.50;99.90
11055;DHT22;5580;50.106;8.702;2023-12-22T04:51:41;7.60;99.90
11055;DHT22;5580;50.106;8.702;2023-12-22T04:54:06;7.60;99.90
11055;DHT22;5580;50.106;8.702;2023-12-22T04:56:32;7.70;99.90
11055;DHT22;5580;50.106;8.702;2023-12-22T04:58:58;7.70;99.90
11055;DHT22;5580;50.106;8.702;2023-12-22T05:01:23;7.70;99.90
11055;DHT22;5580;50.106;8.702;2023-12-22T05:03:50;7.80;99.90
11055;DHT22;5580;50.106;8.702;2023-12-22T05:06:16;7.90;99.90
11055;DHT22;5580;50.106;8.702;2023-12-22T05:08:41;7.90;99.90
11055;DHT22;5580;50.106;8.702;2023-12-22T05:11:07;7.90;99.90
11055;DHT22;5580;50.106;8.702;2023-12-22T05:13:32;7.90;99.90
11055;DHT22;5580;50.106;8.702;2023-12-22T05:15:58;7.90;99.90
11055;DHT22;5580;50.106;8.702;2023-12-22T05:18:26;7.90;99.90
11055;DHT22;5580;50.106;8.702;2023-12-22T05:20:52;7.90;99.90
11055;DHT22;5580;50.106;8.702;2023-12-22T05:23:19;7.90;99.90
11055;DHT22;5580;50.106;8.702;2023-12-22T05:25:44;7.90;99.90
11055;DHT22;5580;50.106;8.702;2023-12-22T05:28:10;8.00;99.90
11055;DHT22;5580;50.106;8.702;2023-12-22T05:30:35;8.00;99.90
11055;DHT22;5580;50.106;8.702;2023-12-22T05:33:01;8.00;99.90
11055;DHT22;5580;50.106;8.702;2023-12-22T05:35:27;8.00;99.90
11055;DHT22;5580;50.106;8.702;2023-12-22T05:37:52;7.90;99.90
11055;DHT22;5580;50.106;8.702;2023-12-22T05:40:18;7.90;99.90
11055;DHT22;5580;50.106;8.702;2023-12-22T05:42:43;7.80;99.90
11055;DHT22;5580;50.106;8.702;2023-12-22T05:45:09;7.80;99.90
11055;DHT22;5580;50.106;8.702;2023-12-22T05:47:36;7.80;99.90
11055;DHT22;5580;50.106;8.702;2023-12-22T05:50:02;7.80;99.90
11055;DHT22;5580;50.106;8.702;2023-12-22T05:52:28;7.80;99.90
11055;DHT22;5580;50.106;8.702;2023-12-22T05:54:53;7.90;99.90
11055;DHT22;5580;50.106;8.702;2023-12-22T05:57:19;7.90;99.90
11055;DHT22;5580;50.106;8.702;2023-12-22T05:59:45;7.80;99.90
11055;DHT22;5580;50.106;8.702;2023-12-22T06:02:10;7.80;99.90
11055;DHT22;5580;50.106;8.702;2023-12-22T06:04:36;7.90;99.90
11055;DHT22;5580;50.106;8.702;2023-12-22T06:07:02;7.90;99.90
11055;DHT22;5580;50.106;8.702;2023-12-22T06:09:27;7.90;99.90
11055;DHT22;5580;50.106;8.702;2023-12-22T06:11:53;7.90;99.90
11055;DHT22;5580;50.106;8.702;2023-12-22T06:14:19;7.90;99.90
11055;DHT22;5580;50.106;8.702;2023-12-22T06:16:45;7.90;99.90
11055;DHT22;5580;50.106;8.702;2023-12-22T06:19:10;8.00;99.90
11055;DHT22;5580;50.106;8.702;2023-12-22T06:21:39;8.00;99.90
11055;DHT22;5580;50.106;8.702;2023-12-22T06:24:05;8.00;99.90
11055;DHT22;5580;50.106;8.702;2023-12-22T06:26:31;8.00;99.90
11055;DHT22;5580;50.106;8.702;2023-12-22T06:28:59;8.00;99.90
11055;DHT22;5580;50.106;8.702;2023-12-22T06:31:25;8.00;99.90
11055;DHT22;5580;50.106;8.702;2023-12-22T06:33:51;8.10;99.90
11055;DHT22;5580;50.106;8.702;2023-12-22T06:36:24;8.10;99.90
11055;DHT22;5580;50.106;8.702;2023-12-22T06:38:51;8.10;99.90
11055;DHT22;5580;50.106;8.702;2023-12-22T06:43:46;8.10;99.90
11055;DHT22;5580;50.106;8.702;2023-12-22T06:46:18;8.20;99.90
11055;DHT22;5580;50.106;8.702;2023-12-22T06:48:45;8.20;99.90
11055;DHT22;5580;50.106;8.702;2023-12-22T06:51:30;8.20;99.90
11055;DHT22;5580;50.106;8.702;2023-12-22T06:53:57;8.20;99.90
11055;DHT22;5580;50.106;8.702;2023-12-22T06:56:24;8.20;99.90
11055;DHT22;5580;50.106;8.702;2023-12-22T06:58:52;8.30;99.90
11055;DHT22;5580;50.106;8.702;2023-12-22T07:01:22;8.30;99.90
11055;DHT22;5580;50.106;8.702;2023-12-22T07:03:49;8.30;99.90
11055;DHT22;5580;50.106;8.702;2023-12-22T07:06:16;8.30;99.90
11055;DHT22;5580;50.106;8.702;2023-12-22T07:08:42;8.30;99.90
11055;DHT22;5580;50.106;8.702;2023-12-22T07:11:08;8.30;99.90
11055;DHT22;5580;50.106;8.702;2023-12-22T07:13:34;8.30;99.90
11055;DHT22;5580;50.106;8.702;2023-12-22T07:16:00;8.40;99.90
11055;DHT22;5580;50.106;8.702;2023-12-22T07:18:27;8.30;99.90
11055;DHT22;5580;50.106;8.702;2023-12-22T07:20:59;8.30;99.90
11055;DHT22;5580;50.106;8.702;2023-12-22T07:23:25;8.40;99.90
11055;DHT22;5580;50.106;8.702;2023-12-22T07:25:50;8.40;99.90
11055;DHT22;5580;50.106;8.702;2023-12-22T07:28:16;8.40;99.90
11055;DHT22;5580;50.106;8.702;2023-12-22T07:30:42;8.50;99.90
11055;DHT22;5580;50.106;8.702;2023-12-22T07:33:07;8.40;99.90
11055;DHT22;5580;50.106;8.702;2023-12-22T07:35:33;8.50;99.90
11055;DHT22;5580;50.106;8.702;2023-12-22T07:37:59;8.50;99.90
11055;DHT22;5580;50.106;8.702;2023-12-22T07:40:25;8.60;99.90
11055;DHT22;5580;50.106;8.702;2023-12-22T07:42:51;8.60;99.90
11055;DHT22;5580;50.106;8.702;2023-12-22T07:45:16;8.60;99.90
11055;DHT22;5580;50.106;8.702;2023-12-22T07:47:42;8.60;99.90
11055;DHT22;5580;50.106;8.702;2023-12-22T07:50:08;8.60;99.90
11055;DHT22;5580;50.106;8.702;2023-12-22T07:52:35;8.70;99.90
11055;DHT22;5580;50.106;8.702;2023-12-22T07:55:06;8.70;99.90
11055;DHT22;5580;50.106;8.702;2023-12-22T07:57:32;8.70;99.90
11055;DHT22;5580;50.106;8.702;2023-12-22T07:59:57;8.70;99.90
11055;DHT22;5580;50.106;8.702;2023-12-22T08:02:23;8.70;99.90
11055;DHT22;5580;50.106;8.702;2023-12-22T08:04:49;8.70;99.90
11055;DHT22;5580;50.106;8.702;2023-12-22T08:07:16;8.60;99.90
11055;DHT22;5580;50.106;8.702;2023-12-22T08:09:41;8.60;99.90
11055;DHT22;5580;50.106;8.702;2023-12-22T08:12:07;8.60;99.90
11055;DHT22;5580;50.106;8.702;2023-12-22T08:14:33;8.60;99.90
11055;DHT22;5580;50.106;8.702;2023-12-22T08:16:58;8.60;99.90
11055;DHT22;5580;50.106;8.702;2023-12-22T08:19:24;8.60;99.90
11055;DHT22;5580;50.106;8.702;2023-12-22T08:21:52;8.60;99.90
11055;DHT22;5580;50.106;8.702;2023-12-22T08:24:18;8.60;99.90
11055;DHT22;5580;50.106;8.702;2023-12-22T08:26:44;8.50;99.90
11055;DHT22;5580;50.106;8.702;2023-12-22T08:29:09;8.50;99.90
11055;DHT22;5580;50.106;8.702;2023-12-22T08:31:35;8.50;99.90
11055;DHT22;5580;50.106;8.702;2023-12-22T08:34:00;8.50;99.90
11055;DHT22;5580;50.106;8.702;2023-12-22T08:36:26;8.50;99.90
11055;DHT22;5580;50.106;8.702;2023-12-22T08:38:52;8.50;99.90
11055;DHT22;5580;50.106;8.702;2023-12-22T08:41:17;8.50;99.90
11055;DHT22;5580;50.106;8.702;2023-12-22T08:43:43;8.50;99.90
11055;DHT22;5580;50.106;8.702;2023-12-22T08:46:08;8.50;99.90
11055;DHT22;5580;50.106;8.702;2023-12-22T08:48:35;8.50;99.90
11055;DHT22;5580;50.106;8.702;2023-12-22T08:51:01;8.40;99.90
11055;DHT22;5580;50.106;8.702;2023-12-22T08:53:26;8.40;99.90
11055;DHT22;5580;50.106;8.702;2023-12-22T08:55:55;8.40;99.90
11055;DHT22;5580;50.106;8.702;2023-12-22T08:58:21;8.40;99.90
11055;DHT22;5580;50.106;8.702;2023-12-22T09:00:47;8.40;99.90
11055;DHT22;5580;50.106;8.702;2023-12-22T09:03:13;8.40;99.90
11055;DHT22;5580;50.106;8.702;2023-12-22T09:05:38;8.50;99.90
11055;DHT22;5580;50.106;8.702;2023-12-22T09:08:05;8.50;99.90
11055;DHT22;5580;50.106;8.702;2023-12-22T09:10:31;8.40;99.90
11055;DHT22;5580;50.106;8.702;2023-12-22T09:12:58;8.40;99.90
11055;DHT22;5580;50.106;8.702;2023-12-22T09:15:23;8.40;99.90
11055;DHT22;5580;50.106;8.702;2023-12-22T09:17:49;8.40;99.90
11055;DHT22;5580;50.106;8.702;2023-12-22T09:20:17;8.30;99.90
11055;DHT22;5580;50.106;8.702;2023-12-22T09:22:43;8.30;99.90
11055;DHT22;5580;50.106;8.702;2023-12-22T09:25:08;8.20;99.90
11055;DHT22;5580;50.106;8.702;2023-12-22T09:27:34;8.30;99.90
11055;DHT22;5580;50.106;8.702;2023-12-22T09:30:00;8.30;99.90
11055;DHT22;5580;50.106;8.702;2023-12-22T09:32:25;8.40;99.90
11055;DHT22;5580;50.106;8.702;2023-12-22T09:34:52;8.30;99.90
11055;DHT22;5580;50.106;8.702;2023-12-22T09:37:18;8.30;99.90
11055;DHT22;5580;50.106;8.702;2023-12-22T09:39:43;8.30;99.90
11055;DHT22;5580;50.106;8.702;2023-12-22T09:42:09;8.30;99.90
11055;DHT22;5580;50.106;8.702;2023-12-22T09:44:36;8.30;99.90
11055;DHT22;5580;50.106;8.702;2023-12-22T09:47:04;8.30;99.90
11055;DHT22;5580;50.106;8.702;2023-12-22T09:49:33;8.20;99.90
11055;DHT22;5580;50.106;8.702;2023-12-22T09:51:59;8.20;99.90
11055;DHT22;5580;50.106;8.702;2023-12-22T09:54:27;8.20;99.90
11055;DHT22;5580;50.106;8.702;2023-12-22T09:56:53;8.20;99.90
11055;DHT22;5580;50.106;8.702;2023-12-22T09:59:19;8.20;99.90
11055;DHT22;5580;50.106;8.702;2023-12-22T10:01:47;8.20;99.90
11055;DHT22;5580;50.106;8.702;2023-12-22T10:04:13;8.20;99.90
11055;DHT22;5580;50.106;8.702;2023-12-22T10:06:40;8.20;99.90
11055;DHT22;5580;50.106;8.702;2023-12-22T10:09:06;8.20;99.90
11055;DHT22;5580;50.106;8.702;2023-12-22T10:11:35;8.10;99.90
11055;DHT22;5580;50.106;8.702;2023-12-22T10:14:02;8.10;99.90
11055;DHT22;5580;50.106;8.702;2023-12-22T10:16:28;8.20;99.90
11055;DHT22;5580;50.106;8.702;2023-12-22T10:18:55;8.20;99.90
11055;DHT22;5580;50.106;8.702;2023-12-22T10:21:20;8.20;99.90
11055;DHT22;5580;50.106;8.702;2023-12-22T10:23:46;8.30;99.90
11055;DHT22;5580;50.106;8.702;2023-12-22T10:26:12;8.30;99.90
11055;DHT22;5580;50.106;8.702;2023-12-22T10:28:37;8.30;99.90
11055;DHT22;5580;50.106;8.702;2023-12-22T10:31:03;8.30;99.90
11055;DHT22;5580;50.106;8.702;2023-12-22T10:33:32;8.40;99.90
11055;DHT22;5580;50.106;8.702;2023-12-22T10:36:00;8.40;99.90
11055;DHT22;5580;50.106;8.702;2023-12-22T10:38:33;8.40;99.90
11055;DHT22;5580;50.106;8.702;2023-12-22T10:41:02;8.40;99.90
11055;DHT22;5580;50.106;8.702;2023-12-22T10:43:29;8.40;99.90
11055;DHT22;5580;50.106;8.702;2023-12-22T10:45:55;8.30;99.90
11055;DHT22;5580;50.106;8.702;2023-12-22T10:48:22;8.40;99.90
11055;DHT22;5580;50.106;8.702;2023-12-22T10:50:48;8.40;99.90
11055;DHT22;5580;50.106;8.702;2023-12-22T10:53:14;8.40;99.90
11055;DHT22;5580;50.106;8.702;2023-12-22T10:55:40;8.50;99.90
11055;DHT22;5580;50.106;8.702;2023-12-22T10:58:06;8.40;99.90
11055;DHT22;5580;50.106;8.702;2023-12-22T11:00:37;8.40;99.90
11055;DHT22;5580;50.106;8.702;2023-12-22T11:03:07;8.40;99.90
11055;DHT22;5580;50.106;8.702;2023-12-22T11:05:35;8.50;99.90
11055;DHT22;5580;50.106;8.702;2023-12-22T11:08:02;8.50;99.90
11055;DHT22;5580;50.106;8.702;2023-12-22T11:10:30;8.60;99.90
11055;DHT22;5580;50.106;8.702;2023-12-22T11:12:57;8.60;99.90
11055;DHT22;5580;50.106;8.702;2023-12-22T11:15:23;8.60;99.90
11055;DHT22;5580;50.106;8.702;2023-12-22T11:17:51;8.60;99.90
11055;DHT22;5580;50.106;8.702;2023-12-22T11:20:18;8.60;99.90
11055;DHT22;5580;50.106;8.702;2023-12-22T11:22:44;8.60;99.90
11055;DHT22;5580;50.106;8.702;2023-12-22T11:25:10;8.70;99.90
11055;DHT22;5580;50.106;8.702;2023-12-22T11:27:37;8.70;99.90
11055;DHT22;5580;50.106;8.702;2023-12-22T11:30:04;8.70;99.90
11055;DHT22;5580;50.106;8.702;2023-12-22T11:32:34;8.70;99.90
11055;DHT22;5580;50.106;8.702;2023-12-22T11:35:00;8.70;99.90
11055;DHT22;5580;50.106;8.702;2023-12-22T11:37:27;8.80;99.90
11055;DHT22;5580;50.106;8.702;2023-12-22T11:39:56;8.80;99.90
11055;DHT22;5580;50.106;8.702;2023-12-22T11:42:24;8.80;99.90
11055;DHT22;5580;50.106;8.702;2023-12-22T11:44:52;8.80;99.90
11055;DHT22;5580;50.106;8.702;2023-12-22T11:47:22;8.90;99.90
11055;DHT22;5580;50.106;8.702;2023-12-22T11:49:48;8.90;99.90
11055;DHT22;5580;50.106;8.702;2023-12-22T11:52:27;8.90;99.90
11055;DHT22;5580;50.106;8.702;2023-12-22T11:54:57;9.00;99.90
11055;DHT22;5580;50.106;8.702;2023-12-22T11:57:39;9.00;99.90
11055;DHT22;5580;50.106;8.702;2023-12-22T12:02:56;9.00;99.90
11055;DHT22;5580;50.106;8.702;2023-12-22T12:05:22;9.00;99.90
11055;DHT22;5580;50.106;8.702;2023-12-22T12:07:48;9.00;99.90
11055;DHT22;5580;50.106;8.702;2023-12-22T12:13:09;9.10;99.90
11055;DHT22;5580;50.106;8.702;2023-12-22T12:15:35;9.00;99.90
11055;DHT22;5580;50.106;8.702;2023-12-22T12:18:02;9.00;99.90
11055;DHT22;5580;50.106;8.702;2023-12-22T12:20:28;9.00;99.90
11055;DHT22;5580;50.106;8.702;2023-12-22T12:22:54;9.00;99.90
11055;DHT22;5580;50.106;8.702;2023-12-22T12:25:23;9.00;99.90
11055;DHT22;5580;50.106;8.702;2023-12-22T12:28:04;9.00;99.90
11055;DHT22;5580;50.106;8.702;2023-12-22T12:30:31;9.00;99.90
11055;DHT22;5580;50.106;8.702;2023-12-22T12:32:59;9.00;99.90
11055;DHT22;5580;50.106;8.702;2023-12-22T12:35:31;9.00;99.90
11055;DHT22;5580;50.106;8.702;2023-12-22T12:37:58;9.00;99.90
11055;DHT22;5580;50.106;8.702;2023-12-22T12:40:24;9.10;99.90
11055;DHT22;5580;50.106;8.702;2023-12-22T12:42:54;9.10;99.90
11055;DHT22;5580;50.106;8.702;2023-12-22T12:45:23;9.10;99.90
11055;DHT22;5580;50.106;8.702;2023-12-22T12:48:13;9.10;99.90
11055;DHT22;5580;50.106;8.702;2023-12-22T12:50:41;9.10;99.90
11055;DHT22;5580;50.106;8.702;2023-12-22T12:53:06;9.10;99.90
11055;DHT22;5580;50.106;8.702;2023-12-22T12:55:32;9.10;99.90
11055;DHT22;5580;50.106;8.702;2023-12-22T12:57:58;9.20;99.90
11055;DHT22;5580;50.106;8.702;2023-12-22T13:00:27;9.10;99.90
11055;DHT22;5580;50.106;8.702;2023-12-22T13:03:00;9.20;99.90
11055;DHT22;5580;50.106;8.702;2023-12-22T13:05:28;9.20;99.90
11055;DHT22;5580;50.106;8.702;2023-12-22T13:08:12;9.20;99.90
11055;DHT22;5580;50.106;8.702;2023-12-22T13:10:39;9.20;99.90
11055;DHT22;5580;50.106;8.702;2023-12-22T13:13:05;9.20;99.90
11055;DHT22;5580;50.106;8.702;2023-12-22T13:15:31;9.30;99.90
11055;DHT22;5580;50.106;8.702;2023-12-22T13:17:56;9.20;99.90
11055;DHT22;5580;50.106;8.702;2023-12-22T13:20:22;9.20;99.90
11055;DHT22;5580;50.106;8.702;2023-12-22T13:22:48;9.20;99.90
11055;DHT22;5580;50.106;8.702;2023-12-22T13:25:14;9.20;99.90
11055;DHT22;5580;50.106;8.702;2023-12-22T13:27:47;9.20;99.90
11055;DHT22;5580;50.106;8.702;2023-12-22T13:30:14;9.20;99.90
11055;DHT22;5580;50.106;8.702;2023-12-22T13:32:39;9.20;99.90
11055;DHT22;5580;50.106;8.702;2023-12-22T13:35:05;9.20;99.90
11055;DHT22;5580;50.106;8.702;2023-12-22T13:37:31;9.10;99.90
11055;DHT22;5580;50.106;8.702;2023-12-22T13:39:57;9.20;99.90
11055;DHT22;5580;50.106;8.702;2023-12-22T13:42:25;9.20;99.90
11055;DHT22;5580;50.106;8.702;2023-12-22T13:44:51;9.20;99.90
11055;DHT22;5580;50.106;8.702;2023-12-22T13:47:21;9.20;99.90
11055;DHT22;5580;50.106;8.702;2023-12-22T13:49:48;9.30;99.90
11055;DHT22;5580;50.106;8.702;2023-12-22T13:52:31;9.30;99.90
11055;DHT22;5580;50.106;8.702;2023-12-22T13:55:13;9.30;99.90
11055;DHT22;5580;50.106;8.702;2023-12-22T13:57:40;9.30;99.90
11055;DHT22;5580;50.106;8.702;2023-12-22T14:00:24;9.20;99.90
11055;DHT22;5580;50.106;8.702;2023-12-22T14:02:50;9.30;99.90
11055;DHT22;5580;50.106;8.702;2023-12-22T14:05:16;9.30;99.90
11055;DHT22;5580;50.106;8.702;2023-12-22T14:07:45;9.30;99.90
11055;DHT22;5580;50.106;8.702;2023-12-22T14:10:11;9.30;99.90
11055;DHT22;5580;50.106;8.702;2023-12-22T14:12:38;9.40;99.90
11055;DHT22;5580;50.106;8.702;2023-12-22T14:15:07;9.40;99.90
11055;DHT22;5580;50.106;8.702;2023-12-22T14:17:34;9.40;99.90
11055;DHT22;5580;50.106;8.702;2023-12-22T14:19:59;9.40;99.90
11055;DHT22;5580;50.106;8.702;2023-12-22T14:22:25;9.50;99.90
11055;DHT22;5580;50.106;8.702;2023-12-22T14:24:52;9.50;99.90
11055;DHT22;5580;50.106;8.702;2023-12-22T14:27:17;9.50;99.90
11055;DHT22;5580;50.106;8.702;2023-12-22T14:29:44;9.50;99.90
11055;DHT22;5580;50.106;8.702;2023-12-22T14:32:09;9.50;99.90
11055;DHT22;5580;50.106;8.702;2023-12-22T14:34:37;9.60;99.90
11055;DHT22;5580;50.106;8.702;2023-12-22T14:37:03;9.60;99.90
11055;DHT22;5580;50.106;8.702;2023-12-22T14:39:29;9.60;99.90
11055;DHT22;5580;50.106;8.702;2023-12-22T14:41:55;9.70;99.90
11055;DHT22;5580;50.106;8.702;2023-12-22T14:44:21;9.70;99.90
11055;DHT22;5580;50.106;8.702;2023-12-22T14:46:46;9.70;99.90
11055;DHT22;5580;50.106;8.702;2023-12-22T14:49:12;9.70;99.90
11055;DHT22;5580;50.106;8.702;2023-12-22T14:51:38;9.70;99.90
11055;DHT22;5580;50.106;8.702;2023-12-22T14:54:07;9.70;99.90
11055;DHT22;5580;50.106;8.702;2023-12-22T14:56:39;9.80;99.90
11055;DHT22;5580;50.106;8.702;2023-12-22T14:59:12;9.80;99.90
11055;DHT22;5580;50.106;8.702;2023-12-22T15:01:38;9.80;99.90
11055;DHT22;5580;50.106;8.702;2023-12-22T15:04:04;9.80;99.90
11055;DHT22;5580;50.106;8.702;2023-12-22T15:06:31;9.80;99.90
11055;DHT22;5580;50.106;8.702;2023-12-22T15:08:56;9.80;99.90
11055;DHT22;5580;50.106;8.702;2023-12-22T15:11:24;9.80;99.90
11055;DHT22;5580;50.106;8.702;2023-12-22T15:13:50;9.90;99.90
11055;DHT22;5580;50.106;8.702;2023-12-22T15:16:16;9.90;99.90
11055;DHT22;5580;50.106;8.702;2023-12-22T15:18:41;9.90;99.90
11055;DHT22;5580;50.106;8.702;2023-12-22T15:21:07;9.90;99.90
11055;DHT22;5580;50.106;8.702;2023-12-22T15:23:32;9.90;99.90
11055;DHT22;5580;50.106;8.702;2023-12-22T15:25:59;9.90;99.90
11055;DHT22;5580;50.106;8.702;2023-12-22T15:28:24;9.90;99.90
11055;DHT22;5580;50.106;8.702;2023-12-22T15:30:51;9.90;99.90
11055;DHT22;5580;50.106;8.702;2023-12-22T15:33:17;10.00;99.90
11055;DHT22;5580;50.106;8.702;2023-12-22T15:35:42;10.00;99.90
11055;DHT22;5580;50.106;8.702;2023-12-22T15:38:09;10.00;99.90
11055;DHT22;5580;50.106;8.702;2023-12-22T15:40:35;10.00;99.90
11055;DHT22;5580;50.106;8.702;2023-12-22T15:43:13;10.00;99.90
11055;DHT22;5580;50.106;8.702;2023-12-22T15:45:38;10.10;99.90
11055;DHT22;5580;50.106;8.702;2023-12-22T15:48:04;10.10;99.90
11055;DHT22;5580;50.106;8.702;2023-12-22T15:50:30;10.10;99.90
11055;DHT22;5580;50.106;8.702;2023-12-22T15:52:55;10.10;99.90
11055;DHT22;5580;50.106;8.702;2023-12-22T15:55:21;10.10;99.90
11055;DHT22;5580;50.106;8.702;2023-12-22T15:57:47;10.10;99.90
11055;DHT22;5580;50.106;8.702;2023-12-22T16:00:12;10.20;99.90
11055;DHT22;5580;50.106;8.702;2023-12-22T16:02:39;10.20;99.90
11055;DHT22;5580;50.106;8.702;2023-12-22T16:05:04;10.20;99.90
11055;DHT22;5580;50.106;8.702;2023-12-22T16:07:30;10.20;99.90